Keosauqua, Iowa
Current Conditions -  °F | °C
As of 9:35 PM on Monday 22 Dec 2014 (Local Time) from KFFL Reporting Station
Light Rain Light Rain  
Wind Chill: 36°   Ceiling: 300
Heat Index: 41°   Visibility: 4mi
Dew Point: 41°   Wind: 7mph
Humidity: 100%   Direction: 110°ESE
Pressure: 29.46"   Gusts: NA
Location:  40.73°N, 91.96°W
Report Text: KFFL 230335Z AUTO 11006KT 4SM -RA OVC003 05/05 A2946 RMK AO2
Loading
Personal Weather Stations






























Interactive Weather Map New forecast layout! Learn more

10-Day Weather Forecast

Advertisements
Track Severe Weather on mobile